Time;durP1;ratioP1;P1;durP2;ratioP2;P2;SDS_P1;SDS_P2;PMS_P1;PMS_P2;Temp;Humidity;BMP_temperature;BMP_pressure;BME280_temperature;BME280_humidity;BME280_pressure;Samples;Min_cycle;Max_cycle;Signal;HPM_P1;HPM_P2
2021/05/02 00:00:34;;;;;;;13.75;4.43;;;;;;;16.46;81.12;100035.69;5052342;28;20021;-70
2021/05/02 00:03:02;;;;;;;11.80;5.03;;;;;;;16.35;81.12;100012.44;5053998;28;20037;-69
2021/05/02 00:05:29;;;;;;;13.52;5.18;;;;;;;16.49;81.28;100029.25;5036010;28;20029;-70
2021/05/02 00:07:57;;;;;;;14.65;5.07;;;;;;;16.46;81.28;100036.47;5052560;28;20037;-69
2021/05/02 00:10:24;;;;;;;19.67;4.85;;;;;;;16.52;81.53;100041.69;5052267;28;20049;-70
2021/05/02 00:12:51;;;;;;;8.73;3.90;;;;;;;16.45;81.38;100032.03;5053595;28;20033;-70
2021/05/02 00:15:19;;;;;;;22.38;5.80;;;;;;;16.38;82.27;100022.88;5052308;28;20479;-69
2021/05/02 00:17:46;;;;;;;15.68;5.13;;;;;;;16.21;82.52;100005.66;5052793;28;20087;-70
2021/05/02 00:20:15;;;;;;;11.90;4.50;;;;;;;16.39;82.42;100032.88;5051826;28;20029;-69
2021/05/02 00:22:46;;;;;;;24.10;5.82;;;;;;;16.40;82.55;100035.28;5052891;28;20131;-70
2021/05/02 00:25:14;;;;;;;18.13;5.65;;;;;;;16.45;82.13;100045.28;5035083;28;20048;-70
2021/05/02 00:27:40;;;;;;;14.07;4.15;;;;;;;16.42;82.79;100034.88;5051447;28;20030;-70
2021/05/02 00:30:07;;;;;;;15.98;4.88;;;;;;;16.41;82.38;100028.47;5051257;28;20029;-70
2021/05/02 00:32:33;;;;;;;15.20;5.05;;;;;;;16.35;82.80;100032.91;5051173;28;20111;-70
2021/05/02 00:35:00;;;;;;;15.60;4.68;;;;;;;16.35;83.03;100046.13;5051210;28;20029;-69
2021/05/02 00:37:27;;;;;;;16.15;4.75;;;;;;;16.29;83.17;100042.94;5052273;28;20032;-69
2021/05/02 00:39:53;;;;;;;22.23;5.18;;;;;;;16.34;83.26;100038.91;5051623;28;20415;-69
2021/05/02 00:42:26;;;;;;;15.45;5.07;;;;;;;16.15;83.34;100023.34;5051405;28;20025;-69
2021/05/02 00:45:14;;;;;;;19.88;5.90;;;;;;;16.29;83.80;100053.34;5051690;28;20116;-69
2021/05/02 00:47:47;;;;;;;22.50;6.22;;;;;;;16.31;83.83;100060.19;5052828;28;20025;-69
2021/05/02 00:50:16;;;;;;;;;;;;;;;16.40;83.50;100056.94;5051435;28;20031;-69
2021/05/02 00:52:48;;;;;;;15.07;5.13;;;;;;;16.44;83.37;100058.53;5050960;28;19915;-69
2021/05/02 00:55:42;;;;;;;22.25;5.97;;;;;;;16.43;83.44;100042.09;5050929;28;20480;-69
2021/05/02 00:58:16;;;;;;;20.08;5.85;;;;;;;16.44;83.39;100043.69;5046759;28;20553;-69
2021/05/02 01:00:41;;;;;;;;;;;;;;;16.40;83.20;100040.09;5051249;28;20025;-70
2021/05/02 01:03:08;;;;;;;24.25;6.45;;;;;;;16.30;84.19;100040.91;5050842;28;19991;-70
2021/05/02 01:05:34;;;;;;;16.17;5.20;;;;;;;16.30;84.05;100032.50;5052122;28;20037;-70
2021/05/02 01:08:04;;;;;;;16.38;6.13;;;;;;;16.34;84.55;100038.91;5050367;28;20040;-70
2021/05/02 01:10:31;;;;;;;20.70;5.57;;;;;;;16.24;84.52;100027.31;5051353;28;20025;-70
2021/05/02 01:12:59;;;;;;;15.35;5.97;;;;;;;16.25;85.11;100044.97;5052310;28;20028;-70
2021/05/02 01:15:31;;;;;;;18.35;5.40;;;;;;;16.19;85.39;100040.94;5050698;28;20063;-70
2021/05/02 01:18:03;;;;;;;25.23;5.55;;;;;;;16.26;84.96;100042.97;5050931;28;20107;-70
2021/05/02 01:20:36;;;;;;;13.25;6.03;;;;;;;16.33;84.76;100049.34;5051877;28;20029;-70
2021/05/02 01:25:47;;;;;;;23.25;7.60;;;;;;;16.20;85.05;100043.38;5112330;27;20867;-70
2021/05/02 01:28:13;;;;;;;19.25;5.28;;;;;;;16.22;84.91;100054.97;5110928;28;20036;-70
2021/05/02 01:30:42;;;;;;;12.02;4.75;;;;;;;16.27;84.83;100055.78;5110285;28;20062;-70
2021/05/02 01:33:07;;;;;;;19.90;6.20;;;;;;;16.21;85.18;100061.81;5110548;28;20424;-70
2021/05/02 01:35:33;;;;;;;18.23;6.78;;;;;;;16.07;85.04;100030.16;5110418;28;20036;-70
2021/05/02 01:37:59;;;;;;;24.92;6.88;;;;;;;16.17;84.50;100034.94;5110205;28;20458;-70
2021/05/02 01:40:25;;;;;;;19.00;5.18;;;;;;;16.22;84.75;100054.19;5110171;28;20032;-70
2021/05/02 01:42:50;;;;;;;17.52;7.80;;;;;;;16.31;84.71;100048.97;5110624;28;20073;-70
2021/05/02 01:45:16;;;;;;;22.83;6.88;;;;;;;16.24;84.64;100058.22;5110249;28;20055;-70
2021/05/02 01:47:50;;;;;;;16.40;6.22;;;;;;;16.22;84.70;100049.38;5109719;28;20040;-70
2021/05/02 01:50:16;;;;;;;17.35;5.50;;;;;;;16.09;85.12;100044.59;5109912;28;20055;-70
2021/05/02 01:52:52;;;;;;;24.55;7.03;;;;;;;16.13;85.52;100054.59;5110445;28;20405;-70
2021/05/02 01:55:19;;;;;;;20.10;7.00;;;;;;;16.05;85.76;100053.03;5111675;28;20111;-70
2021/05/02 01:57:47;;;;;;;23.83;6.72;;;;;;;16.01;85.86;100052.22;5109871;28;20023;-70
2021/05/02 02:00:25;;;;;;;25.45;6.65;;;;;;;16.19;84.98;100055.81;5110376;28;20036;-70
2021/05/02 02:02:59;;;;;;;18.33;6.47;;;;;;;16.15;84.82;100057.81;5111410;28;20035;-71
2021/05/02 02:05:25;;;;;;;23.00;6.85;;;;;;;16.11;85.10;100062.63;5110332;28;20533;-70
2021/05/02 02:07:51;;;;;;;22.73;6.78;;;;;;;16.11;85.38;100065.44;5109894;28;20351;-70
2021/05/02 02:10:19;;;;;;;21.60;5.78;;;;;;;16.06;85.54;100063.03;5109578;28;20043;-70
2021/05/02 02:12:46;;;;;;;16.50;5.68;;;;;;;16.10;86.06;100061.03;5110091;28;20028;-70
2021/05/02 02:15:13;;;;;;;20.50;8.10;;;;;;;16.07;85.93;100075.84;5109471;28;20032;-70
2021/05/02 02:17:38;;;;;;;18.50;6.05;;;;;;;15.99;85.70;100060.25;5109629;28;20440;-70
2021/05/02 02:20:06;;;;;;;26.58;6.35;;;;;;;16.17;85.13;100069.44;5109359;28;20039;-70
2021/05/02 02:22:40;;;;;;;14.45;5.57;;;;;;;16.10;84.08;100061.03;5109292;28;20020;-70
2021/05/02 02:25:09;;;;;;;15.73;6.70;;;;;;;16.11;83.78;100057.00;5091774;28;20138;-70
2021/05/02 02:27:35;;;;;;;19.15;6.22;;;;;;;16.07;84.51;100075.84;5109553;28;20124;-70
2021/05/02 02:30:05;;;;;;;15.05;5.03;;;;;;;16.02;84.79;100075.47;5109529;28;20115;-70
2021/05/02 02:32:44;;;;;;;18.98;5.75;;;;;;;16.10;84.09;100080.69;5109389;28;20482;-70
2021/05/02 02:35:13;;;;;;;21.85;5.70;;;;;;;16.01;83.93;100076.66;5107497;28;20046;-70
2021/05/02 02:37:44;;;;;;;20.23;6.05;;;;;;;15.99;83.69;100093.91;5078922;28;20509;-70
2021/05/02 02:40:12;;;;;;;20.52;5.57;;;;;;;15.89;83.38;100077.88;5096976;28;20107;-70
2021/05/02 02:42:39;;;;;;;14.18;5.28;;;;;;;15.97;83.33;100079.47;5095385;28;20056;-70
2021/05/02 02:45:09;;;;;;;18.77;6.28;;;;;;;15.75;83.14;100052.63;5095239;28;20039;-70
2021/05/02 02:47:38;;;;;;;22.30;4.57;;;;;;;15.98;81.99;100067.88;5078898;28;20036;-70
2021/05/02 02:50:08;;;;;;;13.82;4.70;;;;;;;15.95;81.31;100079.09;5095275;28;20118;-70
2021/05/02 02:52:49;;;;;;;12.07;4.13;;;;;;;16.00;81.15;100081.47;5095743;28;20050;-70
2021/05/02 02:55:17;;;;;;;18.95;4.47;;;;;;;16.03;79.59;100079.88;5095636;28;20115;-70
2021/05/02 02:57:48;;;;;;;15.80;4.47;;;;;;;15.99;79.96;100079.88;5095639;28;20481;-70
2021/05/02 03:00:14;;;;;;;14.45;4.85;;;;;;;15.95;80.66;100079.09;5095049;28;20032;-70
2021/05/02 03:02:46;;;;;;;14.57;4.85;;;;;;;15.95;81.53;100079.09;5094955;28;20081;-70
2021/05/02 03:05:15;;;;;;;18.77;5.28;;;;;;;16.00;81.97;100084.28;5094854;28;20024;-70
2021/05/02 03:07:41;;;;;;;13.50;4.90;;;;;;;16.00;82.56;100087.09;5094884;28;20021;-70
2021/05/02 03:10:09;;;;;;;15.15;4.22;;;;;;;15.98;82.16;100089.50;5096465;28;20028;-70
2021/05/02 03:12:38;;;;;;;11.15;3.85;;;;;;;15.97;79.91;100093.50;5091594;28;20482;-70
2021/05/02 03:15:04;;;;;;;8.05;3.55;;;;;;;15.94;79.77;100094.31;5095062;28;20463;-70
2021/05/02 03:17:32;;;;;;;11.85;3.72;;;;;;;15.91;78.97;100101.53;5094370;28;20122;-70
2021/05/02 03:20:28;;;;;;;13.90;4.60;;;;;;;16.03;79.64;100102.31;5094662;28;20024;-70
2021/05/02 03:22:59;;;;;;;10.20;3.50;;;;;;;15.98;80.68;100115.56;5078003;28;20043;-70
2021/05/02 03:25:30;;;;;;;18.98;5.32;;;;;;;15.93;81.43;100115.16;5094088;28;20052;-70
2021/05/02 03:28:07;;;;;;;18.80;5.30;;;;;;;15.92;82.30;100114.34;5095054;28;20028;-70
2021/05/02 03:30:33;;;;;;;20.05;4.30;;;;;;;15.92;82.92;100114.34;5095740;28;20039;-70
2021/05/02 03:33:03;;;;;;;13.85;4.65;;;;;;;15.85;82.88;100105.13;5094967;28;20028;-70
2021/05/02 03:35:35;;;;;;;16.00;4.20;;;;;;;15.66;83.29;100100.72;5094053;28;20039;-70
2021/05/02 03:38:07;;;;;;;13.82;3.75;;;;;;;15.48;82.80;100077.44;5095560;28;20442;-70
2021/05/02 03:40:33;;;;;;;11.50;4.05;;;;;;;15.53;83.04;100102.28;5094234;28;20498;-70
2021/05/02 03:42:59;;;;;;;18.77;4.40;;;;;;;15.53;82.63;100111.50;5077552;28;20028;-70
2021/05/02 03:45:24;;;;;;;16.98;5.13;;;;;;;15.55;82.58;100117.50;5094424;28;20027;-70
2021/05/02 03:47:50;;;;;;;10.38;3.67;;;;;;;15.69;81.65;100114.75;5093166;28;20482;-71
2021/05/02 03:50:15;;;;;;;13.57;3.40;;;;;;;15.62;81.18;100111.91;5094376;28;20043;-71
2021/05/02 03:52:41;;;;;;;14.88;4.95;;;;;;;15.58;81.44;100125.13;5094075;28;20028;-70
2021/05/02 03:55:07;;;;;;;9.63;3.38;;;;;;;15.37;81.04;100103.44;5094300;28;20070;-70
2021/05/02 03:57:33;;;;;;;12.27;4.68;;;;;;;15.48;79.84;100111.88;5094452;28;20466;-70
2021/05/02 03:59:59;;;;;;;9.23;2.92;;;;;;;15.47;79.84;100110.28;5093887;28;20166;-70
2021/05/02 04:02:24;;;;;;;15.35;4.22;;;;;;;15.45;79.44;100121.09;5094378;28;20077;-70
2021/05/02 04:04:50;;;;;;;11.45;4.07;;;;;;;15.43;79.35;100117.88;5093919;28;20375;-70
2021/05/02 04:07:15;;;;;;;5.10;2.22;;;;;;;15.48;78.64;100123.09;5093738;28;20020;-70
2021/05/02 04:09:47;;;;;;;7.70;3.08;;;;;;;15.47;78.21;100121.50;5093625;28;20025;-70
2021/05/02 04:12:13;;;;;;;7.20;2.65;;;;;;;15.49;78.38;100121.88;5095445;28;20020;-71
2021/05/02 04:14:40;;;;;;;7.65;3.28;;;;;;;15.51;78.39;100130.72;5076874;28;20034;-71
2021/05/02 04:17:10;;;;;;;7.28;2.72;;;;;;;15.56;78.18;100130.34;5093507;28;20030;-72
2021/05/02 04:19:39;;;;;;;8.93;2.40;;;;;;;15.66;77.68;100135.19;5093731;28;20028;-71
2021/05/02 04:22:06;;;;;;;10.75;3.20;;;;;;;15.55;77.21;100134.31;5094423;28;20027;-71
2021/05/02 04:24:32;;;;;;;6.38;2.05;;;;;;;15.53;77.11;100128.31;5092962;28;20498;-71
2021/05/02 04:26:59;;;;;;;6.95;1.80;;;;;;;15.62;76.30;100139.94;5092963;28;20031;-71
2021/05/02 04:29:27;;;;;;;5.57;1.73;;;;;;;15.53;75.95;100136.72;5093568;28;20382;-70
2021/05/02 04:31:53;;;;;;;4.63;2.13;;;;;;;15.57;75.89;100143.16;5094802;28;20045;-71
2021/05/02 04:34:20;;;;;;;5.63;2.33;;;;;;;15.73;76.29;100153.22;5094865;28;20058;-71
2021/05/02 04:36:50;;;;;;;7.80;2.63;;;;;;;15.77;76.93;100157.63;5093441;28;20032;-71
2021/05/02 04:39:16;;;;;;;16.27;3.47;;;;;;;15.82;76.88;100148.00;5093177;28;20036;-71
2021/05/02 04:41:41;;;;;;;8.15;2.80;;;;;;;15.77;77.26;100157.63;5094702;28;20103;-71
2021/05/02 04:44:07;;;;;;;4.47;3.38;;;;;;;15.82;77.23;100159.22;5093269;28;20114;-71
2021/05/02 04:46:33;;;;;;;7.15;2.33;;;;;;;15.75;76.17;100159.22;5093346;28;20032;-71
2021/05/02 04:49:00;;;;;;;14.10;2.45;;;;;;;15.70;76.46;100164.03;5093018;28;20476;-71
2021/05/02 04:51:25;;;;;;;10.13;2.63;;;;;;;15.64;76.50;100156.41;5092987;28;20025;-71
2021/05/02 04:53:51;;;;;;;7.75;2.38;;;;;;;15.55;76.63;100156.75;5092919;28;20032;-71
2021/05/02 04:56:17;;;;;;;10.40;2.55;;;;;;;15.39;77.20;100145.09;5093239;28;20028;-71
2021/05/02 04:58:42;;;;;;;8.10;3.17;;;;;;;15.50;76.95;100153.53;5092608;28;20359;-71
2021/05/02 05:01:11;;;;;;;9.32;2.55;;;;;;;16.86;73.17;100165.59;5093394;28;20024;-71
2021/05/02 05:03:36;;;;;;;5.95;3.13;;;;;;;18.04;69.31;100160.16;5076054;28;20039;-71
2021/05/02 05:06:02;;;;;;;8.20;3.17;;;;;;;18.84;64.00;100168.28;5092704;28;20383;-71
2021/05/02 05:08:28;;;;;;;7.80;2.58;;;;;;;19.07;61.59;100161.19;5093002;28;20051;-71
2021/05/02 05:10:54;;;;;;;10.10;2.67;;;;;;;18.81;63.05;100174.75;5092696;28;20081;-69
2021/05/02 05:13:25;;;;;;;6.57;1.98;;;;;;;18.92;62.84;100168.22;5092659;28;20101;-69
2021/05/02 05:15:50;;;;;;;8.32;3.13;;;;;;;19.01;62.26;100186.19;5092524;28;20047;-71
2021/05/02 05:18:16;;;;;;;3.95;2.38;;;;;;;19.15;61.06;100199.34;5093408;28;20105;-69
2021/05/02 05:20:41;;;;;;;6.28;2.13;;;;;;;19.05;62.50;100189.78;5093098;28;20135;-70
2021/05/02 05:23:07;;;;;;;3.88;1.60;;;;;;;18.42;64.00;100191.22;5092588;28;20458;-70
2021/05/02 05:25:32;;;;;;;4.38;1.70;;;;;;;18.09;64.53;100190.69;5091951;28;20093;-70
2021/05/02 05:27:58;;;;;;;5.15;1.15;;;;;;;18.72;62.81;100193.38;5092815;28;20042;-70
2021/05/02 05:30:24;;;;;;;3.83;1.50;;;;;;;19.18;59.60;100211.81;5093042;28;20360;-71
2021/05/02 05:32:49;;;;;;;5.05;1.63;;;;;;;19.48;57.52;100211.03;5092758;28;20055;-71
2021/05/02 05:35:15;;;;;;;3.80;1.50;;;;;;;19.69;56.19;100207.94;5092964;28;20028;-71
2021/05/02 05:37:40;;;;;;;7.72;1.73;;;;;;;19.59;56.74;100211.72;5092415;28;20032;-71
2021/05/02 05:40:09;;;;;;;3.85;1.23;;;;;;;19.62;56.94;100211.66;5092666;28;20032;-71
2021/05/02 05:42:35;;;;;;;2.05;0.98;;;;;;;20.37;52.28;100221.84;5092283;28;20486;-71
2021/05/02 05:45:00;;;;;;;6.53;1.60;;;;;;;20.61;49.97;100225.50;5092403;28;20056;-71
2021/05/02 05:47:26;;;;;;;3.58;1.25;;;;;;;20.64;50.12;100235.94;5092228;28;20024;-71
2021/05/02 05:49:53;;;;;;;2.60;1.08;;;;;;;20.78;49.07;100229.25;5092229;28;20028;-71
2021/05/02 05:52:19;;;;;;;0.70;0.70;;;;;;;21.12;47.94;100236.69;5092742;28;20032;-71
2021/05/02 05:54:45;;;;;;;6.13;1.30;;;;;;;21.38;47.00;100244.28;5092659;28;20118;-71
2021/05/02 05:57:10;;;;;;;2.92;1.25;;;;;;;21.80;47.03;100243.81;5092070;28;20465;-72
2021/05/02 05:59:36;;;;;;;2.67;0.90;;;;;;;20.93;49.74;100256.03;5092576;28;20177;-72
2021/05/02 06:02:01;;;;;;;2.25;1.02;;;;;;;20.17;51.92;100257.66;5092398;28;20032;-71
2021/05/02 06:04:27;;;;;;;3.70;1.40;;;;;;;20.38;50.68;100260.16;5092133;28;20399;-71
2021/05/02 06:06:53;;;;;;;2.63;1.00;;;;;;;19.81;51.82;100254.56;5092166;28;20028;-70
2021/05/02 06:09:18;;;;;;;3.97;1.20;;;;;;;19.29;54.35;100260.44;5092400;28;20039;-71
2021/05/02 06:11:45;;;;;;;4.63;1.60;;;;;;;19.13;54.88;100252.56;5094777;28;20032;-71
2021/05/02 06:14:11;;;;;;;5.18;1.35;;;;;;;19.32;54.29;100249.09;5095883;28;20098;-71
2021/05/02 06:16:37;;;;;;;4.93;1.30;;;;;;;18.95;54.06;100260.38;5079610;28;20032;-71
2021/05/02 06:19:02;;;;;;;3.95;1.20;;;;;;;18.76;55.24;100259.78;5096422;28;20408;-71
2021/05/02 06:21:31;;;;;;;4.78;1.38;;;;;;;19.04;54.09;100278.41;5095819;28;20121;-70
2021/05/02 06:23:56;;;;;;;4.28;1.20;;;;;;;19.12;52.74;100276.31;5095831;28;20093;-71
2021/05/02 06:26:23;;;;;;;4.25;0.95;;;;;;;18.46;54.08;100279.31;5095990;28;20407;-71
2021/05/02 06:28:50;;;;;;;4.72;1.55;;;;;;;18.71;52.53;100282.75;5095636;28;20036;-71
2021/05/02 06:31:19;;;;;;;8.20;2.17;;;;;;;18.48;53.29;100279.69;5095782;28;20104;-71
2021/05/02 06:33:48;;;;;;;6.68;1.23;;;;;;;19.15;51.95;100267.03;5078429;28;20047;-71
2021/05/02 06:36:15;;;;;;;3.92;1.25;;;;;;;19.46;51.70;100267.88;5096506;28;20377;-71
2021/05/02 06:38:41;;;;;;;5.32;1.00;;;;;;;20.22;48.90;100271.31;5095800;28;20105;-71
2021/05/02 06:41:06;;;;;;;2.05;0.90;;;;;;;20.06;48.46;100262.69;5095573;28;20031;-72
2021/05/02 06:43:32;;;;;;;5.05;1.50;;;;;;;20.01;48.74;100261.13;5096460;28;20035;-71
2021/05/02 06:45:58;;;;;;;2.35;0.90;;;;;;;20.58;47.34;100271.59;5095594;28;20489;-71
2021/05/02 06:48:24;;;;;;;6.47;1.10;;;;;;;21.28;45.94;100259.41;5095016;28;20034;-70
2021/05/02 06:50:50;;;;;;;3.88;1.20;;;;;;;21.13;45.44;100255.25;5095073;28;20034;-70
2021/05/02 06:53:16;;;;;;;1.70;0.95;;;;;;;22.23;44.14;100252.16;5095886;28;20463;-70
2021/05/02 06:55:42;;;;;;;5.15;1.48;;;;;;;22.56;44.10;100274.84;5094901;28;20032;-71
2021/05/02 06:58:08;;;;;;;2.53;0.90;;;;;;;22.77;42.61;100279.19;5094895;28;20028;-70
2021/05/02 07:00:34;;;;;;;5.68;1.20;;;;;;;23.21;42.23;100280.47;5095100;28;20036;-70
2021/05/02 07:03:00;;;;;;;5.53;1.42;;;;;;;23.03;42.19;100291.50;5095096;28;20062;-71
2021/05/02 07:05:26;;;;;;;4.70;1.20;;;;;;;23.30;42.35;100303.31;5094837;28;20552;-71
2021/05/02 07:07:53;;;;;;;3.65;1.20;;;;;;;23.12;42.22;100298.16;5094747;28;20032;-71
2021/05/02 07:10:19;;;;;;;4.50;1.35;;;;;;;22.31;45.24;100293.25;5096221;28;20111;-71
2021/05/02 07:12:44;;;;;;;5.30;1.63;;;;;;;22.53;45.06;100298.41;5095241;28;20524;-70
2021/05/02 07:15:11;;;;;;;7.32;1.20;;;;;;;22.81;44.03;100311.88;5094946;28;20024;-71
2021/05/02 07:17:36;;;;;;;4.25;1.45;;;;;;;22.62;43.92;100301.41;5094994;28;20088;-71
2021/05/02 07:20:04;;;;;;;2.58;1.15;;;;;;;22.26;45.65;100304.31;5094830;28;20032;-71
2021/05/02 07:22:32;;;;;;;6.05;1.70;;;;;;;22.20;45.70;100304.81;5094797;28;20059;-71
2021/05/02 07:24:58;;;;;;;5.07;2.08;;;;;;;23.27;44.94;100318.41;5094112;28;20465;-68
2021/05/02 07:27:27;;;;;;;4.72;1.35;;;;;;;23.67;42.33;100330.31;5094570;28;20055;-69
2021/05/02 07:29:52;;;;;;;7.20;1.42;;;;;;;23.86;41.86;100319.22;5094199;28;20092;-68
2021/05/02 07:32:18;;;;;;;4.03;1.15;;;;;;;23.74;42.18;100326.47;5094729;28;20114;-69
2021/05/02 07:34:43;;;;;;;3.53;1.33;;;;;;;23.65;41.71;100320.63;5094395;28;20032;-70
2021/05/02 07:37:11;;;;;;;7.65;1.02;;;;;;;23.62;41.44;100305.25;5094357;28;20024;-70
2021/05/02 07:39:36;;;;;;;3.50;1.10;;;;;;;23.16;41.57;100307.34;5095092;28;20035;-70
2021/05/02 07:42:02;;;;;;;6.28;1.02;;;;;;;23.95;41.43;100323.00;5094149;28;20053;-72
2021/05/02 07:44:28;;;;;;;2.85;1.30;;;;;;;24.61;39.48;100305.53;5093988;28;20040;-71
2021/05/02 07:46:53;;;;;;;4.80;1.30;;;;;;;24.67;39.25;100332.19;5094425;28;20028;-71
2021/05/02 07:49:19;;;;;;;5.15;1.42;;;;;;;23.94;39.89;100324.25;5093780;28;20469;-70
2021/05/02 07:51:44;;;;;;;2.40;1.23;;;;;;;24.40;39.73;100336.28;5093837;28;20036;-71
2021/05/02 07:54:10;;;;;;;6.68;1.48;;;;;;;24.20;39.51;100339.28;5093883;28;20031;-71
2021/05/02 07:56:36;;;;;;;4.65;1.33;;;;;;;23.75;39.78;100348.72;5094396;28;20028;-71
2021/05/02 07:59:01;;;;;;;4.55;1.50;;;;;;;23.04;42.57;100350.63;5093744;28;20533;-70
2021/05/02 08:01:27;;;;;;;2.70;1.40;;;;;;;22.79;42.12;100337.03;5093505;28;20115;-71
2021/05/02 08:03:52;;;;;;;4.63;1.00;;;;;;;22.54;42.88;100331.19;5093526;28;20024;-71
2021/05/02 08:06:18;;;;;;;4.43;1.35;;;;;;;23.33;41.57;100344.19;5093566;28;20032;-71
2021/05/02 08:08:44;;;;;;;3.03;1.02;;;;;;;23.00;41.42;100341.41;5093562;28;20085;-71
2021/05/02 08:11:09;;;;;;;8.52;1.48;;;;;;;22.61;41.90;100334.66;5092582;28;20063;-72
2021/05/02 08:13:36;;;;;;;2.83;1.20;;;;;;;23.00;41.61;100339.38;5093387;28;20032;-70
2021/05/02 08:16:02;;;;;;;3.50;1.20;;;;;;;22.86;41.86;100342.56;5092550;28;20222;-71
2021/05/02 08:18:28;;;;;;;2.60;1.42;;;;;;;22.97;41.94;100339.47;5094175;28;20024;-71
2021/05/02 08:20:53;;;;;;;2.70;1.25;;;;;;;22.60;41.75;100352.13;5093803;28;20020;-71
2021/05/02 08:23:19;;;;;;;3.65;1.35;;;;;;;22.34;42.92;100345.44;5093547;28;20531;-72
2021/05/02 08:25:44;;;;;;;6.93;1.40;;;;;;;23.45;40.41;100352.81;5092741;28;20040;-71
2021/05/02 08:28:10;;;;;;;1.50;0.85;;;;;;;23.62;39.28;100347.06;5093017;28;20111;-71
2021/05/02 08:30:36;;;;;;;4.07;1.30;;;;;;;23.89;38.67;100349.56;5093893;28;20039;-71
2021/05/02 08:33:02;;;;;;;2.08;0.90;;;;;;;23.33;40.10;100367.75;5094348;28;20047;-71
2021/05/02 08:35:27;;;;;;;4.95;1.10;;;;;;;23.44;39.55;100364.63;5092861;28;20028;-70
2021/05/02 08:37:53;;;;;;;5.85;1.88;;;;;;;24.23;38.35;100351.78;5093225;28;20157;-70
2021/05/02 08:40:18;;;;;;;5.63;1.50;;;;;;;23.62;40.09;100366.94;5093006;28;20036;-71
2021/05/02 08:42:44;;;;;;;6.65;1.15;;;;;;;23.93;38.50;100375.84;5092977;28;20036;-71
2021/05/02 08:45:10;;;;;;;6.25;1.25;;;;;;;24.58;37.49;100369.03;5093445;28;20024;-71
2021/05/02 08:47:36;;;;;;;4.20;1.08;;;;;;;24.05;37.43;100366.56;5076846;28;20363;-72
2021/05/02 08:50:12;;;;;;;4.53;0.95;;;;;;;24.71;37.61;100366.97;5093777;28;20043;-72
2021/05/02 08:52:39;;;;;;;4.85;1.42;;;;;;;24.94;37.22;100375.16;5093348;28;20100;-72
2021/05/02 08:55:07;;;;;;;3.17;1.42;;;;;;;24.26;38.05;100385.00;5093303;28;20028;-71
2021/05/02 08:57:34;;;;;;;2.63;1.50;;;;;;;24.19;39.51;100390.94;5093771;28;20024;-71
2021/05/02 09:00:06;;;;;;;6.28;1.77;;;;;;;24.16;39.05;100378.41;5094537;28;20495;-72
2021/05/02 09:02:32;;;;;;;3.35;1.42;;;;;;;24.10;39.25;100385.09;5093116;28;20132;-72
2021/05/02 09:05:01;;;;;;;3.33;1.08;;;;;;;23.94;39.25;100388.81;5092781;28;20016;-72
2021/05/02 09:07:26;;;;;;;3.53;1.40;;;;;;;24.27;38.74;100383.75;5093072;28;20359;-71
2021/05/02 09:09:52;;;;;;;4.70;1.63;;;;;;;24.35;38.22;100407.94;5092612;28;20122;-71
2021/05/02 09:12:26;;;;;;;5.10;1.50;;;;;;;24.52;37.47;100402.94;5094519;28;20034;-71
2021/05/02 09:14:53;;;;;;;2.30;1.02;;;;;;;24.33;36.52;100407.53;5093937;28;20036;-71
2021/05/02 09:17:27;;;;;;;4.35;1.35;;;;;;;24.07;36.05;100415.19;5092246;28;20028;-71
2021/05/02 09:19:53;;;;;;;2.75;1.05;;;;;;;23.54;36.15;100414.63;5093559;28;20047;-71
2021/05/02 09:22:20;;;;;;;1.42;0.90;;;;;;;23.93;35.20;100407.91;5092264;28;20032;-71
2021/05/02 09:25:18;;;;;;;3.33;1.35;;;;;;;21.94;39.70;100417.09;5093238;28;20057;-70
2021/05/02 09:27:48;;;;;;;3.97;1.65;;;;;;;23.61;37.66;100416.50;5048097;28;20032;-71
2021/05/02 09:30:16;;;;;;;1.73;1.17;;;;;;;23.77;37.53;100416.47;5092360;28;20062;-71
2021/05/02 09:32:44;;;;;;;3.70;0.98;;;;;;;24.52;36.46;100425.69;5092176;28;20170;-71
2021/05/02 09:35:28;;;;;;;4.03;1.30;;;;;;;24.49;35.63;100424.53;5094124;28;20092;-72
2021/05/02 09:38:18;;;;;;;4.20;1.65;;;;;;;24.58;35.54;100414.56;5092188;28;20069;-71
2021/05/02 09:40:50;;;;;;;3.25;1.30;;;;;;;24.64;36.18;100424.91;5093458;28;20035;-71
2021/05/02 09:43:36;;;;;;;3.95;1.38;;;;;;;25.09;34.57;100426.75;5092520;28;20045;-72
2021/05/02 09:48:59;;;;;;;5.88;1.65;;;;;;;24.55;36.08;100434.13;5097403;28;20085;-71
2021/05/02 09:51:29;;;;;;;4.15;1.38;;;;;;;25.28;34.39;100430.59;5096154;28;20098;-72
2021/05/02 09:54:14;;;;;;;1.92;1.00;;;;;;;24.30;35.91;100428.34;5096128;28;20103;-71
2021/05/02 09:56:41;;;;;;;3.28;1.10;;;;;;;22.55;38.30;100426.34;5095921;28;20058;-71
2021/05/02 09:59:30;;;;;;;5.43;1.05;;;;;;;23.96;35.86;100424.03;5096580;28;20085;-71
2021/05/02 10:02:20;;;;;;;1.92;0.65;;;;;;;23.61;37.55;100422.16;5097834;28;20469;-71
2021/05/02 10:04:50;;;;;;;2.50;0.80;;;;;;;22.74;38.89;100417.00;5097341;28;20020;-72
2021/05/02 10:07:21;;;;;;;8.05;1.13;;;;;;;23.78;37.73;100424.53;5095785;28;20020;-71
2021/05/02 10:09:47;;;;;;;5.05;1.63;;;;;;;23.34;38.25;100436.66;5095697;28;20028;-71
2021/05/02 10:12:14;;;;;;;5.15;1.20;;;;;;;23.35;38.42;100439.06;5095769;28;20123;-72
2021/05/02 10:14:41;;;;;;;8.80;1.30;;;;;;;23.95;37.89;100430.97;5097378;28;20522;-71
2021/05/02 10:17:08;;;;;;;2.70;1.27;;;;;;;23.76;38.72;100435.56;5095501;28;20473;-71
2021/05/02 10:19:34;;;;;;;5.32;1.60;;;;;;;23.68;38.51;100445.50;5095674;28;20077;-72
2021/05/02 10:22:00;;;;;;;4.70;1.52;;;;;;;23.58;39.46;100451.44;5095613;28;20112;-72
2021/05/02 10:24:26;;;;;;;4.40;1.40;;;;;;;23.39;40.33;100439.78;5095116;28;20040;-71
2021/05/02 10:26:53;;;;;;;2.00;0.93;;;;;;;23.64;39.05;100444.00;5095565;28;20077;-71
2021/05/02 10:29:25;;;;;;;4.95;1.45;;;;;;;23.31;41.29;100444.03;5096977;28;20036;-70
2021/05/02 10:32:03;;;;;;;3.83;1.27;;;;;;;22.38;42.68;100449.00;5095212;28;20028;-72
2021/05/02 10:34:35;;;;;;;1.80;1.02;;;;;;;23.42;41.24;100458.75;5095315;28;20059;-71
2021/05/02 10:37:23;;;;;;;4.40;1.42;;;;;;;23.45;40.88;100452.19;5096901;28;20458;-72
2021/05/02 10:39:59;;;;;;;4.63;1.33;;;;;;;23.54;41.39;100445.84;5084519;28;20067;-71
2021/05/02 10:43:03;;;;;;;5.13;1.35;;;;;;;23.66;41.35;100453.69;5095845;28;20031;-71
2021/05/02 10:45:44;;;;;;;;;;;;;;;24.17;39.20;100453.88;5095818;28;20118;-71
2021/05/02 10:48:22;;;;;;;7.60;1.50;;;;;;;24.63;38.27;100446.06;5095838;28;20045;-71
2021/05/02 10:50:52;;;;;;;2.13;0.90;;;;;;;24.11;38.69;100454.91;5095363;28;20435;-71
2021/05/02 10:53:19;;;;;;;4.72;1.50;;;;;;;24.32;38.37;100459.97;5095888;28;20056;-71
2021/05/02 10:55:52;;;;;;;4.25;1.00;;;;;;;23.53;38.84;100455.63;5095387;28;20024;-72
2021/05/02 10:58:19;;;;;;;4.55;1.02;;;;;;;23.91;38.92;100464.38;5095300;28;20025;-71
2021/05/02 11:00:50;;;;;;;3.97;1.30;;;;;;;23.17;39.86;100467.91;5094959;28;20036;-70
2021/05/02 11:03:40;;;;;;;8.27;1.60;;;;;;;22.98;39.78;100472.38;5095393;28;20028;-71
2021/05/02 11:06:10;;;;;;;5.32;1.13;;;;;;;23.38;39.77;100472.22;5094865;28;20024;-71
2021/05/02 11:09:12;;;;;;;3.17;1.30;;;;;;;22.62;40.92;100466.69;5094845;28;20031;-71
2021/05/02 11:11:41;;;;;;;5.88;1.33;;;;;;;23.43;39.88;100474.53;5081597;28;20105;-71
2021/05/02 11:14:10;;;;;;;5.57;1.30;;;;;;;23.88;38.98;100470.97;5094682;28;20031;-69
2021/05/02 11:16:35;;;;;;;3.42;1.20;;;;;;;23.22;40.28;100484.41;5093687;28;20043;-69
2021/05/02 11:19:02;;;;;;;5.00;1.23;;;;;;;23.73;39.18;100483.94;5094755;28;20028;-70
2021/05/02 11:21:50;;;;;;;3.55;1.35;;;;;;;23.81;37.60;100476.84;5094774;28;20035;-70
2021/05/02 11:24:49;;;;;;;2.33;1.50;;;;;;;23.98;36.97;100480.44;5094267;28;20048;-70
2021/05/02 11:27:54;;;;;;;2.47;1.30;;;;;;;23.93;36.65;100496.00;5096487;28;20409;-70
2021/05/02 11:30:22;;;;;;;5.70;1.13;;;;;;;22.92;38.24;100484.72;5094326;28;20028;-70
2021/05/02 11:32:49;;;;;;;7.07;1.20;;;;;;;23.19;38.18;100475.97;5078166;28;20454;-70
2021/05/02 11:35:18;;;;;;;4.72;0.95;;;;;;;23.17;37.31;100475.59;5094126;28;20033;-70
2021/05/02 11:38:00;;;;;;;3.60;1.30;;;;;;;23.36;36.81;100479.59;5093344;28;20474;-70